Time;durP1;ratioP1;P1;durP2;ratioP2;P2;SDS_P1;SDS_P2;PMS_P1;PMS_P2;Temp;Humidity;BMP_temperature;BMP_pressure;BME280_temperature;BME280_humidity;BME280_pressure;Samples;Min_cycle;Max_cycle;Signal;HPM_P1;HPM_P2
2022/01/31 00:01:54;;;;;;;8.30;2.70;;;;;;;;;;6119626;23;21058;-88
2022/01/31 00:04:58;;;;;;;7.83;3.13;;;;;;;;;;6135602;23;20514;-87
2022/01/31 00:08:03;;;;;;;8.07;2.60;;;;;;;;;;6131935;23;20575;-88
2022/01/31 00:11:07;;;;;;;8.87;2.80;;;;;;;;;;6119269;23;20515;-88
2022/01/31 00:14:28;;;;;;;13.73;3.07;;;;;;;;;;6118616;23;20514;-88
2022/01/31 00:17:32;;;;;;;11.10;3.20;;;;;;;;;;6116796;23;20574;-88
2022/01/31 00:20:36;;;;;;;10.33;3.50;;;;;;;;;;6119294;23;20515;-87
2022/01/31 00:23:40;;;;;;;10.63;3.20;;;;;;;;;;6101924;23;20522;-87
2022/01/31 00:26:45;;;;;;;9.37;2.80;;;;;;;;;;6101911;23;20565;-88
2022/01/31 00:29:49;;;;;;;10.50;3.10;;;;;;;;;;6119517;23;20511;-88
2022/01/31 00:32:53;;;;;;;9.63;3.40;;;;;;;;;;6118904;23;20519;-87
2022/01/31 00:35:56;;;;;;;7.33;3.00;;;;;;;;;;6119337;23;20828;-88
2022/01/31 00:39:02;;;;;;;10.20;3.40;;;;;;;;;;6106334;23;20966;-85
2022/01/31 00:42:07;;;;;;;11.60;4.00;;;;;;;;;;6101626;23;20514;-85
2022/01/31 00:45:26;;;;;;;12.40;3.43;;;;;;;;;;6108891;23;20872;-87
2022/01/31 00:48:40;;;;;;;14.27;4.00;;;;;;;;;;6100803;23;20571;-88
2022/01/31 00:51:44;;;;;;;13.40;3.77;;;;;;;;;;6089916;23;20503;-88
2022/01/31 00:54:49;;;;;;;10.70;3.37;;;;;;;;;;6089416;23;20519;-87
2022/01/31 00:57:53;;;;;;;10.77;3.60;;;;;;;;;;6086535;23;20579;-87
2022/01/31 01:00:57;;;;;;;9.37;3.63;;;;;;;;;;6091282;23;20518;-88
2022/01/31 01:04:01;;;;;;;10.93;3.93;;;;;;;;;;6091133;23;20515;-87
2022/01/31 01:07:05;;;;;;;16.47;3.47;;;;;;;;;;6091324;23;20571;-88
2022/01/31 01:10:09;;;;;;;9.57;3.43;;;;;;;;;;6091083;23;20515;-88
2022/01/31 01:13:13;;;;;;;11.87;3.97;;;;;;;;;;6091141;23;20515;-88
2022/01/31 01:16:17;;;;;;;7.83;3.40;;;;;;;;;;6107827;23;20515;-88
2022/01/31 01:19:22;;;;;;;14.40;3.60;;;;;;;;;;6082777;23;20578;-88
2022/01/31 01:22:26;;;;;;;10.03;3.17;;;;;;;;;;6081385;23;20555;-88
2022/01/31 01:25:32;;;;;;;9.10;3.30;;;;;;;;;;6091435;23;20507;-88
2022/01/31 01:28:36;;;;;;;8.90;3.03;;;;;;;;;;6085379;23;20579;-88
2022/01/31 01:31:44;;;;;;;13.70;3.93;;;;;;;;;;6097973;23;20551;-88
2022/01/31 01:34:48;;;;;;;11.00;3.67;;;;;;;;;;6091260;23;20507;-88
2022/01/31 01:37:52;;;;;;;8.63;3.03;;;;;;;;;;6105139;23;20590;-88
2022/01/31 01:40:59;;;;;;;8.50;3.70;;;;;;;;;;6091360;23;20507;-89
2022/01/31 01:44:04;;;;;;;11.37;3.60;;;;;;;;;;6107650;23;20852;-88
2022/01/31 01:47:08;;;;;;;15.47;3.47;;;;;;;;;;6107467;23;21119;-87
2022/01/31 01:50:12;;;;;;;12.50;3.70;;;;;;;;;;6090617;23;20519;-88
2022/01/31 01:53:17;;;;;;;14.57;3.50;;;;;;;;;;6090987;23;20516;-88
2022/01/31 01:56:21;;;;;;;12.83;3.60;;;;;;;;;;6081282;23;21087;-88
2022/01/31 01:59:26;;;;;;;12.27;3.40;;;;;;;;;;6097700;23;21134;-89
2022/01/31 02:02:49;;;;;;;13.30;3.57;;;;;;;;;;6107207;23;20511;-88
2022/01/31 02:05:57;;;;;;;12.43;3.53;;;;;;;;;;6107160;23;20834;-88
2022/01/31 02:09:02;;;;;;;12.93;3.80;;;;;;;;;;6099916;23;21103;-88
2022/01/31 02:12:09;;;;;;;10.67;3.47;;;;;;;;;;6106819;23;20515;-88
2022/01/31 02:15:15;;;;;;;11.57;3.73;;;;;;;;;;6097575;23;20861;-89
2022/01/31 02:18:45;;;;;;;12.37;3.50;;;;;;;;;;6101450;23;20567;-88
2022/01/31 02:21:56;;;;;;;14.63;3.37;;;;;;;;;;6092510;23;21027;-89
2022/01/31 02:25:34;;;;;;;8.13;2.80;;;;;;;;;;6089821;23;20567;-89
2022/01/31 02:29:13;;;;;;;13.57;3.63;;;;;;;;;;6099128;23;20575;-88
2022/01/31 02:32:20;;;;;;;11.73;3.50;;;;;;;;;;6090589;23;21055;-88
2022/01/31 02:35:26;;;;;;;12.47;3.60;;;;;;;;;;6065046;23;20554;-88
2022/01/31 02:38:31;;;;;;;16.43;3.17;;;;;;;;;;6102053;23;20590;-89
2022/01/31 02:41:44;;;;;;;10.03;3.23;;;;;;;;;;6090050;23;20515;-89
2022/01/31 02:44:48;;;;;;;10.77;3.60;;;;;;;;;;6106604;23;21055;-88
2022/01/31 02:47:59;;;;;;;6.97;3.27;;;;;;;;;;6071721;23;20614;-88
2022/01/31 02:51:10;;;;;;;9.10;3.20;;;;;;;;;;6106547;23;20523;-88
2022/01/31 02:54:14;;;;;;;17.87;3.43;;;;;;;;;;6090456;23;20856;-88
2022/01/31 02:57:18;;;;;;;7.43;3.27;;;;;;;;;;6090368;23;20511;-86
2022/01/31 03:00:22;;;;;;;8.50;3.23;;;;;;;;;;6090025;23;21051;-88
2022/01/31 03:03:42;;;;;;;14.00;3.77;;;;;;;;;;6106994;23;20524;-88
2022/01/31 03:06:49;;;;;;;10.10;3.13;;;;;;;;;;6090521;23;20563;-89
2022/01/31 03:09:56;;;;;;;18.63;3.70;;;;;;;;;;6105734;23;20519;-88
2022/01/31 03:13:05;;;;;;;8.13;3.27;;;;;;;;;;6079987;23;20563;-88
2022/01/31 03:16:14;;;;;;;13.83;3.93;;;;;;;;;;6081320;23;21095;-88
2022/01/31 03:19:41;;;;;;;11.63;3.10;;;;;;;;;;6084183;23;20578;-89
2022/01/31 03:22:47;;;;;;;6.80;3.10;;;;;;;;;;6106630;23;20519;-88
2022/01/31 03:25:51;;;;;;;12.23;3.30;;;;;;;;;;6106598;23;20511;-88
2022/01/31 03:28:55;;;;;;;12.17;3.50;;;;;;;;;;6083863;23;20574;-88
2022/01/31 03:31:59;;;;;;;13.37;3.23;;;;;;;;;;6107317;23;20503;-89
2022/01/31 03:35:04;;;;;;;13.27;3.60;;;;;;;;;;6089394;23;20519;-88
2022/01/31 03:38:09;;;;;;;9.27;3.37;;;;;;;;;;6100526;23;20602;-88
2022/01/31 03:41:16;;;;;;;11.83;2.87;;;;;;;;;;6106817;23;20503;-89
2022/01/31 03:44:21;;;;;;;7.77;3.13;;;;;;;;;;6089947;23;21035;-88
2022/01/31 03:47:29;;;;;;;7.33;3.63;;;;;;;;;;6107995;23;20559;-86
2022/01/31 03:50:33;;;;;;;9.17;3.03;;;;;;;;;;6091445;23;20515;-86
2022/01/31 03:53:38;;;;;;;10.80;3.50;;;;;;;;;;6091655;23;20827;-86
2022/01/31 03:56:42;;;;;;;18.10;3.30;;;;;;;;;;6092295;23;20515;-86
2022/01/31 04:00:09;;;;;;;8.93;3.83;;;;;;;;;;6108191;23;20516;-86
2022/01/31 04:03:21;;;;;;;9.70;3.40;;;;;;;;;;6093556;23;20512;-86
2022/01/31 04:06:25;;;;;;;7.40;2.83;;;;;;;;;;6091229;23;20515;-86
2022/01/31 04:09:29;;;;;;;10.77;3.30;;;;;;;;;;6098854;23;21120;-86
2022/01/31 04:12:33;;;;;;;8.23;3.30;;;;;;;;;;6124683;23;20515;-86
2022/01/31 04:15:39;;;;;;;10.53;3.70;;;;;;;;;;6108416;23;20515;-86
2022/01/31 04:18:43;;;;;;;10.67;3.57;;;;;;;;;;6102079;23;20579;-86
2022/01/31 04:21:48;;;;;;;12.00;3.83;;;;;;;;;;6081998;23;20558;-86
2022/01/31 04:24:58;;;;;;;15.53;2.87;;;;;;;;;;6114609;23;20554;-86
2022/01/31 04:28:04;;;;;;;12.87;3.33;;;;;;;;;;6104674;23;20615;-86
2022/01/31 04:31:36;;;;;;;12.40;3.93;;;;;;;;;;6107640;23;20523;-85
2022/01/31 04:34:38;;;;;;;12.93;3.40;;;;;;;;;;6108022;23;20798;-87
2022/01/31 04:37:42;;;;;;;15.07;3.80;;;;;;;;;;6121931;23;20898;-86
2022/01/31 04:40:46;;;;;;;10.53;3.30;;;;;;;;;;6107900;23;20504;-86
2022/01/31 04:43:52;;;;;;;10.03;3.60;;;;;;;;;;6090817;23;20515;-86
2022/01/31 04:46:56;;;;;;;14.17;3.60;;;;;;;;;;6096896;23;20559;-86
2022/01/31 04:50:01;;;;;;;11.43;3.20;;;;;;;;;;6097409;23;20562;-86
2022/01/31 04:53:05;;;;;;;11.73;3.43;;;;;;;;;;6091712;23;20821;-86
2022/01/31 04:56:09;;;;;;;11.50;3.70;;;;;;;;;;6091139;23;20830;-86
2022/01/31 04:59:13;;;;;;;9.57;3.33;;;;;;;;;;6100130;23;20881;-86
2022/01/31 05:02:17;;;;;;;11.90;4.00;;;;;;;;;;6091442;23;20836;-86
2022/01/31 05:05:21;;;;;;;12.57;3.57;;;;;;;;;;6106811;23;20507;-86
2022/01/31 05:08:27;;;;;;;8.23;3.50;;;;;;;;;;6102534;23;20615;-86
2022/01/31 05:11:32;;;;;;;12.03;3.90;;;;;;;;;;6106443;23;20515;-87
2022/01/31 05:14:35;;;;;;;10.53;3.33;;;;;;;;;;6123154;23;20511;-88
2022/01/31 05:17:40;;;;;;;12.57;3.47;;;;;;;;;;6105479;23;21147;-88
2022/01/31 05:20:44;;;;;;;10.53;3.63;;;;;;;;;;6089651;23;20511;-89
2022/01/31 05:23:49;;;;;;;11.97;3.70;;;;;;;;;;6106151;23;20523;-88
2022/01/31 05:26:54;;;;;;;10.80;3.60;;;;;;;;;;6089492;23;20527;-88
2022/01/31 05:34:35;;;;;;;12.87;3.80;;;;;;;;;;6097933;23;20570;-85
2022/01/31 05:38:13;;;;;;;7.40;3.10;;;;;;;;;;6121406;23;20594;-86
2022/01/31 05:42:09;;;;;;;15.23;3.33;;;;;;;;;;6120841;23;20508;-85
2022/01/31 05:45:33;;;;;;;11.80;3.50;;;;;;;;;;6120066;23;20504;-88
2022/01/31 05:48:39;;;;;;;8.87;3.57;;;;;;;;;;6102422;23;20618;-88
2022/01/31 05:52:02;;;;;;;12.17;3.50;;;;;;;;;;6107747;23;20503;-89
2022/01/31 05:55:06;;;;;;;6.60;3.20;;;;;;;;;;6108558;23;20524;-86
2022/01/31 05:58:11;;;;;;;9.00;3.53;;;;;;;;;;6087014;23;20571;-87
2022/01/31 06:01:15;;;;;;;9.40;3.20;;;;;;;;;;6091174;23;20806;-88
2022/01/31 06:04:19;;;;;;;12.10;3.80;;;;;;;;;;6107610;23;20840;-88
2022/01/31 06:07:22;;;;;;;7.33;3.80;;;;;;;;;;6090063;23;20515;-87
2022/01/31 06:10:27;;;;;;;15.57;3.93;;;;;;;;;;6107598;23;20507;-88
2022/01/31 06:13:33;;;;;;;9.90;3.53;;;;;;;;;;6107231;23;20511;-88
2022/01/31 06:16:37;;;;;;;9.90;3.57;;;;;;;;;;6123672;23;20511;-87
2022/01/31 06:19:41;;;;;;;10.43;3.30;;;;;;;;;;6114514;23;20566;-88
2022/01/31 06:22:53;;;;;;;8.40;3.90;;;;;;;;;;6090798;23;20519;-89
2022/01/31 06:25:57;;;;;;;12.40;3.67;;;;;;;;;;6107398;23;20503;-88
2022/01/31 06:29:01;;;;;;;13.97;4.07;;;;;;;;;;6083421;23;20610;-88
2022/01/31 06:32:07;;;;;;;9.70;4.03;;;;;;;;;;6107332;23;20511;-88
2022/01/31 06:35:12;;;;;;;12.57;3.97;;;;;;;;;;6124225;23;20508;-88
2022/01/31 06:38:17;;;;;;;11.90;3.87;;;;;;;;;;6117329;23;20638;-88
2022/01/31 06:41:24;;;;;;;15.60;3.87;;;;;;;;;;6075363;23;20809;-89
2022/01/31 06:44:28;;;;;;;9.13;4.00;;;;;;;;;;6090837;23;20519;-88
2022/01/31 06:47:32;;;;;;;7.77;3.53;;;;;;;;;;6074036;23;20515;-88
2022/01/31 06:50:37;;;;;;;14.23;3.80;;;;;;;;;;6061951;23;20521;-88
2022/01/31 06:53:42;;;;;;;8.63;3.60;;;;;;;;;;6078415;23;20516;-88
2022/01/31 06:56:46;;;;;;;7.73;3.70;;;;;;;;;;6078508;23;20508;-87
2022/01/31 06:59:50;;;;;;;13.47;4.33;;;;;;;;;;6053461;23;20571;-87
2022/01/31 07:02:54;;;;;;;13.97;6.97;;;;;;;;;;6045128;23;20512;-88
2022/01/31 07:05:58;;;;;;;12.23;6.37;;;;;;;;;;6045443;23;20512;-88
2022/01/31 07:09:03;;;;;;;32.47;21.17;;;;;;;;;;6051719;23;20619;-88
2022/01/31 07:12:10;;;;;;;11.87;5.73;;;;;;;;;;6061742;23;20520;-87
2022/01/31 07:15:14;;;;;;;14.37;4.93;;;;;;;;;;6061303;23;20524;-88
2022/01/31 07:18:18;;;;;;;10.47;4.27;;;;;;;;;;6042524;23;21135;-87
2022/01/31 07:21:29;;;;;;;6.70;3.83;;;;;;;;;;6061524;23;20524;-88
2022/01/31 07:27:40;;;;;;;10.47;4.13;;;;;;;;;;6061037;23;20520;-88
2022/01/31 07:30:50;;;;;;;8.53;4.13;;;;;;;;;;6061350;23;21048;-88
2022/01/31 07:33:54;;;;;;;6.30;3.40;;;;;;;;;;6035359;23;20560;-87
2022/01/31 07:36:58;;;;;;;12.43;3.93;;;;;;;;;;6044982;23;20520;-88
2022/01/31 07:40:06;;;;;;;13.20;4.00;;;;;;;;;;6036191;23;20894;-87
2022/01/31 07:43:10;;;;;;;6.73;3.03;;;;;;;;;;6061082;23;21049;-88
2022/01/31 07:46:15;;;;;;;7.77;3.23;;;;;;;;;;6061542;23;20842;-88
2022/01/31 07:49:21;;;;;;;7.80;3.47;;;;;;;;;;6054975;23;20615;-88
2022/01/31 07:52:26;;;;;;;8.40;3.57;;;;;;;;;;6044639;23;20524;-88
2022/01/31 07:55:33;;;;;;;41.53;19.60;;;;;;;;;;6044641;23;20516;-88
2022/01/31 07:58:38;;;;;;;21.47;12.73;;;;;;;;;;6057162;23;20575;-88
2022/01/31 08:01:42;;;;;;;11.60;5.40;;;;;;;;;;6051625;23;20873;-88
2022/01/31 08:04:46;;;;;;;13.60;5.87;;;;;;;;;;6068833;23;20559;-89
2022/01/31 08:07:50;;;;;;;17.07;8.83;;;;;;;;;;6043798;23;20520;-88
2022/01/31 08:10:57;;;;;;;11.27;5.30;;;;;;;;;;6061035;23;20504;-87
2022/01/31 08:14:07;;;;;;;9.53;4.67;;;;;;;;;;6061288;23;20831;-87
2022/01/31 08:17:11;;;;;;;11.40;6.13;;;;;;;;;;6046291;23;20504;-88
2022/01/31 08:20:15;;;;;;;9.10;5.20;;;;;;;;;;6069544;23;20556;-87
2022/01/31 08:23:19;;;;;;;8.57;3.10;;;;;;;;;;6046193;23;20516;-86
2022/01/31 08:26:23;;;;;;;9.33;4.10;;;;;;;;;;6055108;23;20559;-86
2022/01/31 08:29:35;;;;;;;9.97;4.20;;;;;;;;;;6036575;23;20611;-86
2022/01/31 08:32:45;;;;;;;9.50;4.43;;;;;;;;;;6045314;23;20520;-86
2022/01/31 08:35:50;;;;;;;8.47;5.30;;;;;;;;;;6061325;23;20516;-86
2022/01/31 08:38:54;;;;;;;11.93;3.93;;;;;;;;;;6072026;23;20592;-86
2022/01/31 08:41:59;;;;;;;12.03;3.30;;;;;;;;;;6068257;23;20547;-86
2022/01/31 08:45:04;;;;;;;8.53;3.80;;;;;;;;;;6067791;23;20567;-86
2022/01/31 08:48:08;;;;;;;38.83;18.40;;;;;;;;;;6042422;23;21127;-86
2022/01/31 08:51:12;;;;;;;12.33;4.80;;;;;;;;;;6044678;23;20520;-86
2022/01/31 08:54:17;;;;;;;12.30;5.83;;;;;;;;;;6077535;23;20834;-87
2022/01/31 08:57:21;;;;;;;23.50;14.30;;;;;;;;;;6045139;23;20520;-86
2022/01/31 09:00:33;;;;;;;15.97;9.53;;;;;;;;;;6061304;23;20504;-86
2022/01/31 09:06:43;;;;;;;9.83;6.17;;;;;;;;;;6077860;23;20515;-86
2022/01/31 09:09:51;;;;;;;7.17;4.77;;;;;;;;;;6051980;23;20615;-86
2022/01/31 09:12:56;;;;;;;5.97;3.57;;;;;;;;;;6077444;23;20516;-86
2022/01/31 09:16:01;;;;;;;8.60;3.87;;;;;;;;;;6061804;23;20508;-86
2022/01/31 09:19:05;;;;;;;9.13;4.60;;;;;;;;;;6051558;23;20592;-86
2022/01/31 09:22:09;;;;;;;10.27;6.10;;;;;;;;;;6037109;23;20551;-86
2022/01/31 09:25:14;;;;;;;7.23;3.77;;;;;;;;;;6053489;23;20874;-86
2022/01/31 09:28:19;;;;;;;6.67;3.80;;;;;;;;;;6044183;23;20575;-86
2022/01/31 09:31:23;;;;;;;6.73;3.60;;;;;;;;;;6045643;23;20515;-88
2022/01/31 09:34:27;;;;;;;7.00;3.47;;;;;;;;;;6078765;23;21044;-88
2022/01/31 09:37:31;;;;;;;7.70;2.90;;;;;;;;;;6075754;23;21099;-88
2022/01/31 09:40:35;;;;;;;7.23;3.10;;;;;;;;;;6078591;23;20516;-88
2022/01/31 09:49:54;;;;;;;7.33;3.83;;;;;;;;;;6069588;23;20611;-89
2022/01/31 09:52:58;;;;;;;5.83;4.50;;;;;;;;;;6046065;23;20508;-88
2022/01/31 09:56:04;;;;;;;3.73;3.23;;;;;;;;;;6078531;23;20516;-87
2022/01/31 09:59:10;;;;;;;4.17;3.23;;;;;;;;;;6056185;23;20571;-88
2022/01/31 10:02:17;;;;;;;7.13;3.47;;;;;;;;;;6061800;23;20520;-88
2022/01/31 10:05:28;;;;;;;6.30;4.43;;;;;;;;;;6046111;23;20504;-88
2022/01/31 10:08:32;;;;;;;4.40;4.00;;;;;;;;;;6042034;23;20579;-88
2022/01/31 10:11:53;;;;;;;5.80;3.77;;;;;;;;;;6062278;23;20519;-88
2022/01/31 10:18:19;;;;;;;5.37;3.83;;;;;;;;;;6059405;23;20579;-88
2022/01/31 10:21:24;;;;;;;4.17;2.77;;;;;;;;;;6062213;23;20521;-88
2022/01/31 10:24:29;;;;;;;4.60;2.40;;;;;;;;;;6062453;23;20508;-89
2022/01/31 10:27:36;;;;;;;6.63;2.33;;;;;;;;;;6045598;23;21032;-88
2022/01/31 10:30:40;;;;;;;4.17;2.30;;;;;;;;;;6078499;23;20560;-88
2022/01/31 10:34:15;;;;;;;3.53;2.40;;;;;;;;;;6052339;23;20884;-88
2022/01/31 10:37:21;;;;;;;2.33;1.77;;;;;;;;;;6061772;23;21048;-88
2022/01/31 10:57:02;;;;;;;2.77;1.20;;;;;;;;;;6061380;23;20152;-86
2022/01/31 11:00:08;;;;;;;2.10;1.57;;;;;;;;;;6045226;23;20159;-87
2022/01/31 11:03:32;;;;;;;1.70;1.60;;;;;;;;;;6077777;23;20159;-87
2022/01/31 11:06:42;;;;;;;3.17;1.30;;;;;;;;;;6062460;23;20160;-85
2022/01/31 11:09:50;;;;;;;2.13;1.57;;;;;;;;;;6053410;23;20207;-86
2022/01/31 11:12:55;;;;;;;2.03;1.53;;;;;;;;;;6061706;23;20156;-86
2022/01/31 11:16:00;;;;;;;1.80;1.37;;;;;;;;;;6045490;23;20151;-86
2022/01/31 11:19:08;;;;;;;1.50;1.20;;;;;;;;;;6052604;23;20533;-86
2022/01/31 11:22:14;;;;;;;2.53;1.37;;;;;;;;;;6035657;23;20171;-86
2022/01/31 11:25:19;;;;;;;2.70;1.60;;;;;;;;;;6068320;23;20176;-86
2022/01/31 11:28:29;;;;;;;2.57;1.20;;;;;;;;;;6074939;23;20195;-86
2022/01/31 11:31:36;;;;;;;1.83;1.53;;;;;;;;;;6045409;23;20575;-86
2022/01/31 11:34:43;;;;;;;1.10;1.00;;;;;;;;;;6061164;23;20159;-87
2022/01/31 11:37:49;;;;;;;3.93;1.60;;;;;;;;;;6060619;23;20155;-86
2022/01/31 11:41:00;;;;;;;2.70;1.43;;;;;;;;;;6077862;23;20156;-86
2022/01/31 11:44:16;;;;;;;3.97;1.40;;;;;;;;;;6061428;23;20598;-87
2022/01/31 11:47:27;;;;;;;1.60;1.40;;;;;;;;;;6044756;23;20160;-87
2022/01/31 11:50:42;;;;;;;2.23;1.30;;;;;;;;;;6061182;23;20521;-87
2022/01/31 11:53:47;;;;;;;3.17;1.60;;;;;;;;;;6061164;23;20159;-87
2022/01/31 11:56:53;;;;;;;3.00;1.30;;;;;;;;;;6044275;23;20152;-87
2022/01/31 12:00:03;;;;;;;8.63;1.80;;;;;;;;;;6036239;23;20541;-87
2022/01/31 12:03:09;;;;;;;3.53;1.33;;;;;;;;;;6044786;23;20497;-87
2022/01/31 12:06:20;;;;;;;3.50;1.60;;;;;;;;;;6061176;23;20609;-87
2022/01/31 12:09:27;;;;;;;2.37;1.57;;;;;;;;;;6067931;23;20203;-87
2022/01/31 12:12:47;;;;;;;30.63;13.27;;;;;;;;;;6060779;23;20164;-87
2022/01/31 12:22:05;;;;;;;3.00;0.83;;;;;;;;;;6060737;23;20156;-87
2022/01/31 12:25:41;;;;;;;1.77;1.30;;;;;;;;;;6067843;23;20206;-87
2022/01/31 12:28:54;;;;;;;1.40;1.03;;;;;;;;;;6073198;23;20191;-87
2022/01/31 12:32:13;;;;;;;1.23;1.07;;;;;;;;;;6060828;23;20164;-87
2022/01/31 12:35:31;;;;;;;3.53;1.30;;;;;;;;;;6076977;23;20156;-87
2022/01/31 12:38:35;;;;;;;3.67;1.30;;;;;;;;;;6070552;23;20195;-89
2022/01/31 12:41:39;;;;;;;3.13;1.23;;;;;;;;;;6061015;23;20156;-88
2022/01/31 12:44:46;;;;;;;1.90;1.10;;;;;;;;;;6060675;23;20159;-88
2022/01/31 12:48:08;;;;;;;2.07;1.17;;;;;;;;;;6060619;23;20481;-88
2022/01/31 12:51:15;;;;;;;4.77;1.10;;;;;;;;;;6061954;23;20641;-86
2022/01/31 12:54:23;;;;;;;2.50;1.00;;;;;;;;;;6060832;23;20155;-87
2022/01/31 12:57:27;;;;;;;2.63;1.27;;;;;;;;;;6079298;23;20164;-87
2022/01/31 13:00:38;;;;;;;1.77;1.07;;;;;;;;;;6079621;23;20156;-86
2022/01/31 13:03:48;;;;;;;2.27;1.23;;;;;;;;;;6063145;23;20155;-84
2022/01/31 13:06:56;;;;;;;2.17;1.30;;;;;;;;;;6079356;23;20160;-82
2022/01/31 13:10:10;;;;;;;4.03;1.50;;;;;;;;;;6037234;23;20726;-84
2022/01/31 13:13:15;;;;;;;2.47;1.50;;;;;;;;;;6063422;23;20508;-86
2022/01/31 13:16:21;;;;;;;2.10;1.17;;;;;;;;;;6046449;23;20161;-86
2022/01/31 13:19:27;;;;;;;2.30;1.20;;;;;;;;;;6039319;23;20195;-86
2022/01/31 13:22:39;;;;;;;1.67;1.00;;;;;;;;;;6070316;23;20563;-86
2022/01/31 13:25:43;;;;;;;1.23;1.13;;;;;;;;;;6047083;23;21069;-86
2022/01/31 13:28:50;;;;;;;3.87;1.53;;;;;;;;;;6075477;23;20571;-86
2022/01/31 13:31:54;;;;;;;4.30;1.23;;;;;;;;;;6046902;23;20516;-86
2022/01/31 13:35:06;;;;;;;2.50;1.23;;;;;;;;;;6052875;23;20560;-87
2022/01/31 13:38:12;;;;;;;3.43;1.10;;;;;;;;;;6077572;23;20595;-87
2022/01/31 13:41:19;;;;;;;2.70;1.13;;;;;;;;;;6079475;23;20508;-88
2022/01/31 13:44:23;;;;;;;2.30;1.40;;;;;;;;;;6046385;23;20512;-87
2022/01/31 13:47:36;;;;;;;2.13;1.20;;;;;;;;;;6046687;23;20504;-86
2022/01/31 13:50:44;;;;;;;1.57;0.90;;;;;;;;;;6069619;23;20195;-87
2022/01/31 13:53:48;;;;;;;17.60;12.63;;;;;;;;;;6046556;23;20164;-87
2022/01/31 13:56:58;;;;;;;8.47;6.57;;;;;;;;;;6062584;23;21052;-87
2022/01/31 14:00:03;;;;;;;5.63;1.50;;;;;;;;;;6052729;23;20576;-87
2022/01/31 14:03:10;;;;;;;5.57;2.20;;;;;;;;;;6078787;23;20521;-88
2022/01/31 14:06:15;;;;;;;3.57;1.80;;;;;;;;;;6036284;23;20555;-87
2022/01/31 14:09:19;;;;;;;3.67;2.10;;;;;;;;;;6040090;23;20579;-88
2022/01/31 14:12:24;;;;;;;2.70;1.33;;;;;;;;;;6038041;23;20555;-89
2022/01/31 14:15:28;;;;;;;2.90;1.00;;;;;;;;;;6078969;23;20546;-88
2022/01/31 14:18:33;;;;;;;2.33;1.20;;;;;;;;;;6036237;23;20583;-89
2022/01/31 14:21:40;;;;;;;1.57;0.93;;;;;;;;;;6052827;23;20555;-89
2022/01/31 14:24:47;;;;;;;3.20;1.60;;;;;;;;;;6062238;23;20508;-89
2022/01/31 14:27:53;;;;;;;5.60;1.80;;;;;;;;;;6061325;23;20524;-87
2022/01/31 14:30:57;;;;;;;6.30;2.20;;;;;;;;;;6062151;23;20188;-89
2022/01/31 14:34:07;;;;;;;3.57;1.50;;;;;;;;;;6045674;23;20521;-86
2022/01/31 14:37:11;;;;;;;2.63;1.60;;;;;;;;;;6036098;23;20559;-88
2022/01/31 14:40:36;;;;;;;3.83;1.53;;;;;;;;;;6046737;23;21041;-89
2022/01/31 14:50:31;;;;;;;1.93;1.60;;;;;;;;;;6062551;23;20561;-86
2022/01/31 14:53:35;;;;;;;7.87;4.03;;;;;;;;;;6095183;23;20517;-86
2022/01/31 14:56:41;;;;;;;2.90;2.10;;;;;;;;;;6051981;23;20559;-87
2022/01/31 14:59:45;;;;;;;1.70;1.40;;;;;;;;;;6053810;23;20575;-88
2022/01/31 15:02:49;;;;;;;3.43;2.00;;;;;;;;;;6045765;23;20555;-87
2022/01/31 15:05:54;;;;;;;0.90;0.80;;;;;;;;;;6045459;23;20516;-88
2022/01/31 15:08:58;;;;;;;4.40;1.30;;;;;;;;;;6056228;23;20584;-88
2022/01/31 15:12:02;;;;;;;1.30;0.80;;;;;;;;;;6061455;23;20567;-88
2022/01/31 15:15:08;;;;;;;2.27;1.30;;;;;;;;;;6052283;23;20555;-89
2022/01/31 15:18:12;;;;;;;2.20;0.93;;;;;;;;;;6035454;23;20591;-89
2022/01/31 15:21:16;;;;;;;1.23;0.80;;;;;;;;;;6052122;23;20560;-88
2022/01/31 15:24:20;;;;;;;6.10;1.10;;;;;;;;;;6061219;23;21064;-88
2022/01/31 15:27:24;;;;;;;1.57;1.13;;;;;;;;;;6062049;23;20520;-88
2022/01/31 15:30:29;;;;;;;2.67;1.47;;;;;;;;;;6062434;23;20607;-88
2022/01/31 15:33:33;;;;;;;1.87;1.13;;;;;;;;;;6061274;23;20512;-89
2022/01/31 15:36:38;;;;;;;2.37;1.00;;;;;;;;;;6061249;23;20519;-88
2022/01/31 15:39:42;;;;;;;7.87;4.67;;;;;;;;;;6036897;23;20600;-88
2022/01/31 15:42:46;;;;;;;2.23;1.20;;;;;;;;;;6061611;23;21041;-87
2022/01/31 15:45:51;;;;;;;4.63;3.20;;;;;;;;;;6045259;23;21029;-88
2022/01/31 15:48:55;;;;;;;6.40;3.13;;;;;;;;;;6035782;23;20591;-88
2022/01/31 15:51:59;;;;;;;3.80;1.50;;;;;;;;;;6035425;23;21168;-88
2022/01/31 15:55:03;;;;;;;3.57;2.17;;;;;;;;;;6045689;23;20508;-88
2022/01/31 15:58:09;;;;;;;3.23;1.33;;;;;;;;;;6068744;23;20591;-88
2022/01/31 16:01:13;;;;;;;5.53;2.00;;;;;;;;;;6068655;23;20560;-88
2022/01/31 16:04:17;;;;;;;2.33;1.80;;;;;;;;;;6052691;23;20547;-88
2022/01/31 16:07:21;;;;;;;3.67;2.00;;;;;;;;;;6051636;23;20559;-86
2022/01/31 16:10:26;;;;;;;2.40;2.03;;;;;;;;;;6052406;23;20548;-86
2022/01/31 16:13:30;;;;;;;4.03;1.90;;;;;;;;;;6045432;23;20508;-88
2022/01/31 16:16:34;;;;;;;4.93;3.23;;;;;;;;;;6061704;23;20508;-88
2022/01/31 16:19:38;;;;;;;8.03;5.23;;;;;;;;;;6070108;23;20579;-87
2022/01/31 16:22:42;;;;;;;5.87;4.00;;;;;;;;;;6045272;23;20500;-87
2022/01/31 16:25:47;;;;;;;12.33;7.80;;;;;;;;;;6044890;23;20508;-88
2022/01/31 16:28:51;;;;;;;10.77;6.37;;;;;;;;;;6056467;23;20575;-89
2022/01/31 16:31:55;;;;;;;27.53;15.33;;;;;;;;;;6077185;23;21092;-88
2022/01/31 16:34:59;;;;;;;4.70;3.10;;;;;;;;;;6060982;23;20508;-88
2022/01/31 16:38:04;;;;;;;4.40;4.00;;;;;;;;;;6043220;23;20590;-88
2022/01/31 16:41:08;;;;;;;3.07;2.30;;;;;;;;;;6078441;23;20500;-88
2022/01/31 16:44:13;;;;;;;4.40;3.10;;;;;;;;;;6061272;23;20508;-87
2022/01/31 16:47:17;;;;;;;3.07;1.80;;;;;;;;;;6060845;23;20528;-88
2022/01/31 16:50:24;;;;;;;3.33;1.67;;;;;;;;;;6060983;23;20520;-87
2022/01/31 16:53:31;;;;;;;4.63;2.40;;;;;;;;;;6077811;23;20501;-88
2022/01/31 16:56:34;;;;;;;4.63;2.90;;;;;;;;;;6044888;23;20509;-88
2022/01/31 16:59:40;;;;;;;2.67;1.77;;;;;;;;;;6050966;23;20591;-88
2022/01/31 17:02:45;;;;;;;3.23;1.63;;;;;;;;;;6035692;23;20555;-87
2022/01/31 17:05:51;;;;;;;7.33;5.30;;;;;;;;;;6044619;23;20516;-88
2022/01/31 17:08:56;;;;;;;2.50;1.87;;;;;;;;;;6089220;23;20891;-88
2022/01/31 17:12:01;;;;;;;4.87;3.70;;;;;;;;;;6061080;23;20577;-88
2022/01/31 17:15:08;;;;;;;8.30;5.90;;;;;;;;;;6061033;23;20520;-87
2022/01/31 17:18:12;;;;;;;8.80;5.17;;;;;;;;;;6058680;23;20587;-88
2022/01/31 17:21:17;;;;;;;15.10;9.30;;;;;;;;;;6060421;23;20846;-88
2022/01/31 17:24:21;;;;;;;4.03;3.23;;;;;;;;;;6044310;23;20524;-88
2022/01/31 17:27:25;;;;;;;3.77;3.40;;;;;;;;;;6060685;23;21025;-88
2022/01/31 17:30:29;;;;;;;1.87;1.70;;;;;;;;;;6051262;23;20552;-88
2022/01/31 17:33:32;;;;;;;2.67;1.90;;;;;;;;;;6060567;23;20512;-89
2022/01/31 17:36:37;;;;;;;2.77;2.10;;;;;;;;;;6060608;23;20505;-88
2022/01/31 17:39:43;;;;;;;4.10;2.77;;;;;;;;;;6036270;23;21167;-88
2022/01/31 17:42:55;;;;;;;4.20;2.43;;;;;;;;;;6046269;23;20512;-87
2022/01/31 17:46:00;;;;;;;11.17;4.80;;;;;;;;;;6036720;23;20870;-89
2022/01/31 17:49:04;;;;;;;4.10;3.00;;;;;;;;;;6069038;23;20583;-89
2022/01/31 17:52:08;;;;;;;10.17;4.90;;;;;;;;;;6052884;23;20599;-88
2022/01/31 17:55:13;;;;;;;18.07;8.33;;;;;;;;;;6079155;23;20504;-89
2022/01/31 17:58:17;;;;;;;16.87;7.83;;;;;;;;;;6060064;23;20587;-88
2022/01/31 18:01:23;;;;;;;24.23;14.90;;;;;;;;;;6062578;23;20512;-87
2022/01/31 18:04:30;;;;;;;6.53;4.40;;;;;;;;;;6062897;23;20811;-88
2022/01/31 18:07:34;;;;;;;4.87;4.47;;;;;;;;;;6062781;23;20508;-89
2022/01/31 18:10:38;;;;;;;5.10;4.70;;;;;;;;;;6052938;23;20556;-88
2022/01/31 18:13:42;;;;;;;5.70;5.20;;;;;;;;;;6062366;23;20501;-88
2022/01/31 18:16:46;;;;;;;4.20;3.80;;;;;;;;;;6095153;23;20519;-88
2022/01/31 18:19:50;;;;;;;4.53;3.00;;;;;;;;;;6036172;23;21180;-88
2022/01/31 18:22:55;;;;;;;3.30;2.37;;;;;;;;;;6062511;23;20500;-89
2022/01/31 18:25:59;;;;;;;4.73;2.90;;;;;;;;;;6078738;23;20524;-88
2022/01/31 18:29:03;;;;;;;3.70;2.60;;;;;;;;;;6040084;23;20575;-88
2022/01/31 18:32:09;;;;;;;4.20;2.80;;;;;;;;;;6045805;23;20906;-88
2022/01/31 18:35:17;;;;;;;2.87;2.43;;;;;;;;;;6078628;23;20520;-88
2022/01/31 18:38:21;;;;;;;3.57;2.93;;;;;;;;;;6041994;23;20606;-88
2022/01/31 18:41:28;;;;;;;4.00;3.10;;;;;;;;;;6081192;23;20558;-87
2022/01/31 18:44:35;;;;;;;3.27;2.80;;;;;;;;;;6064943;23;20555;-87
2022/01/31 18:47:40;;;;;;;5.10;3.23;;;;;;;;;;6114302;23;20554;-87
2022/01/31 18:50:48;;;;;;;4.67;3.73;;;;;;;;;;6078688;23;20520;-87
2022/01/31 18:53:54;;;;;;;5.27;3.20;;;;;;;;;;6045443;23;20512;-87
2022/01/31 18:56:58;;;;;;;3.17;2.57;;;;;;;;;;6062202;23;20521;-87
2022/01/31 19:00:03;;;;;;;4.90;4.23;;;;;;;;;;6053879;23;20588;-87
2022/01/31 19:03:07;;;;;;;4.07;2.83;;;;;;;;;;6078472;23;20520;-88
2022/01/31 19:06:12;;;;;;;2.73;2.53;;;;;;;;;;6062046;23;20508;-87
2022/01/31 19:09:23;;;;;;;3.17;2.70;;;;;;;;;;6073339;23;20579;-88
2022/01/31 19:12:42;;;;;;;3.40;3.10;;;;;;;;;;6052730;23;20603;-88
2022/01/31 19:15:46;;;;;;;4.37;2.60;;;;;;;;;;6061704;23;20528;-88
2022/01/31 19:18:51;;;;;;;4.83;2.87;;;;;;;;;;6058395;23;20580;-87
2022/01/31 19:21:55;;;;;;;5.60;3.70;;;;;;;;;;6045430;23;20508;-88
2022/01/31 19:25:00;;;;;;;3.97;2.90;;;;;;;;;;6078105;23;20855;-87